sensor_id;sensor_type;location;lat;lon;timestamp;P1;durP1;ratioP1;P2;durP2;ratioP2
66970;SDS011;53901;51.466;-2.588;2023-05-03T00:00:27;13.52;;;6.40;;
66970;SDS011;53901;51.466;-2.588;2023-05-03T00:02:53;16.92;;;6.40;;
66970;SDS011;53901;51.466;-2.588;2023-05-03T00:05:21;11.90;;;6.75;;
66970;SDS011;53901;51.466;-2.588;2023-05-03T00:07:46;14.35;;;6.70;;
66970;SDS011;53901;51.466;-2.588;2023-05-03T00:10:12;13.10;;;7.03;;
66970;SDS011;53901;51.466;-2.588;2023-05-03T00:12:39;12.30;;;6.95;;
66970;SDS011;53901;51.466;-2.588;2023-05-03T00:15:05;19.42;;;7.22;;
66970;SDS011;53901;51.466;-2.588;2023-05-03T00:17:31;17.33;;;7.93;;
66970;SDS011;53901;51.466;-2.588;2023-05-03T00:19:57;14.23;;;7.28;;
66970;SDS011;53901;51.466;-2.588;2023-05-03T00:22:23;13.60;;;7.03;;
66970;SDS011;53901;51.466;-2.588;2023-05-03T00:24:49;15.90;;;8.27;;
66970;SDS011;53901;51.466;-2.588;2023-05-03T00:27:15;13.85;;;7.57;;
66970;SDS011;53901;51.466;-2.588;2023-05-03T00:29:41;20.58;;;8.15;;
66970;SDS011;53901;51.466;-2.588;2023-05-03T00:32:06;18.15;;;8.00;;
66970;SDS011;53901;51.466;-2.588;2023-05-03T00:34:34;13.70;;;7.85;;
66970;SDS011;53901;51.466;-2.588;2023-05-03T00:37:00;15.80;;;8.23;;
66970;SDS011;53901;51.466;-2.588;2023-05-03T00:39:27;14.63;;;7.90;;
66970;SDS011;53901;51.466;-2.588;2023-05-03T00:41:55;12.82;;;6.47;;
66970;SDS011;53901;51.466;-2.588;2023-05-03T00:44:25;14.43;;;6.97;;
66970;SDS011;53901;51.466;-2.588;2023-05-03T00:46:50;22.63;;;6.68;;
66970;SDS011;53901;51.466;-2.588;2023-05-03T00:49:16;11.45;;;5.65;;
66970;SDS011;53901;51.466;-2.588;2023-05-03T00:51:41;15.52;;;5.40;;
66970;SDS011;53901;51.466;-2.588;2023-05-03T00:54:07;10.25;;;5.80;;
66970;SDS011;53901;51.466;-2.588;2023-05-03T00:56:33;11.85;;;5.22;;
66970;SDS011;53901;51.466;-2.588;2023-05-03T00:58:58;13.82;;;4.93;;
66970;SDS011;53901;51.466;-2.588;2023-05-03T01:01:25;12.82;;;5.20;;
66970;SDS011;53901;51.466;-2.588;2023-05-03T01:03:50;9.18;;;4.72;;
66970;SDS011;53901;51.466;-2.588;2023-05-03T01:08:52;11.63;;;3.97;;
66970;SDS011;53901;51.466;-2.588;2023-05-03T01:11:25;12.52;;;4.50;;
66970;SDS011;53901;51.466;-2.588;2023-05-03T01:13:56;10.05;;;3.88;;
66970;SDS011;53901;51.466;-2.588;2023-05-03T01:16:27;11.52;;;4.90;;
66970;SDS011;53901;51.466;-2.588;2023-05-03T01:18:57;8.77;;;4.28;;
66970;SDS011;53901;51.466;-2.588;2023-05-03T01:21:26;16.10;;;3.80;;
66970;SDS011;53901;51.466;-2.588;2023-05-03T01:23:59;15.65;;;4.45;;
66970;SDS011;53901;51.466;-2.588;2023-05-03T01:26:28;13.20;;;4.20;;
66970;SDS011;53901;51.466;-2.588;2023-05-03T01:28:54;7.68;;;3.70;;
66970;SDS011;53901;51.466;-2.588;2023-05-03T01:31:43;9.40;;;3.80;;
66970;SDS011;53901;51.466;-2.588;2023-05-03T01:36:56;7.80;;;3.53;;
66970;SDS011;53901;51.466;-2.588;2023-05-03T01:39:28;10.10;;;3.95;;
66970;SDS011;53901;51.466;-2.588;2023-05-03T01:41:58;9.68;;;4.05;;
66970;SDS011;53901;51.466;-2.588;2023-05-03T01:44:25;9.02;;;4.10;;
66970;SDS011;53901;51.466;-2.588;2023-05-03T01:46:50;8.90;;;3.75;;
66970;SDS011;53901;51.466;-2.588;2023-05-03T01:49:16;9.27;;;3.63;;
66970;SDS011;53901;51.466;-2.588;2023-05-03T01:51:42;9.30;;;3.67;;
66970;SDS011;53901;51.466;-2.588;2023-05-03T01:54:07;8.50;;;3.42;;
66970;SDS011;53901;51.466;-2.588;2023-05-03T01:56:33;13.93;;;3.60;;
66970;SDS011;53901;51.466;-2.588;2023-05-03T01:59:01;10.60;;;3.60;;
66970;SDS011;53901;51.466;-2.588;2023-05-03T02:01:27;8.55;;;3.67;;
66970;SDS011;53901;51.466;-2.588;2023-05-03T02:03:52;9.23;;;4.28;;
66970;SDS011;53901;51.466;-2.588;2023-05-03T02:06:17;8.10;;;3.50;;
66970;SDS011;53901;51.466;-2.588;2023-05-03T02:08:43;7.30;;;3.00;;
66970;SDS011;53901;51.466;-2.588;2023-05-03T02:11:08;7.40;;;3.30;;
66970;SDS011;53901;51.466;-2.588;2023-05-03T02:13:34;12.07;;;3.45;;
66970;SDS011;53901;51.466;-2.588;2023-05-03T02:16:01;8.25;;;3.00;;
66970;SDS011;53901;51.466;-2.588;2023-05-03T02:18:26;8.30;;;2.90;;
66970;SDS011;53901;51.466;-2.588;2023-05-03T02:20:55;7.85;;;2.83;;
66970;SDS011;53901;51.466;-2.588;2023-05-03T02:23:20;9.95;;;2.97;;
66970;SDS011;53901;51.466;-2.588;2023-05-03T02:25:46;9.95;;;3.13;;
66970;SDS011;53901;51.466;-2.588;2023-05-03T02:28:11;5.35;;;2.55;;
66970;SDS011;53901;51.466;-2.588;2023-05-03T02:30:37;6.72;;;2.83;;
66970;SDS011;53901;51.466;-2.588;2023-05-03T02:33:02;10.68;;;2.85;;
66970;SDS011;53901;51.466;-2.588;2023-05-03T02:35:27;5.38;;;2.60;;
66970;SDS011;53901;51.466;-2.588;2023-05-03T02:37:53;5.03;;;2.17;;
66970;SDS011;53901;51.466;-2.588;2023-05-03T02:40:18;6.68;;;2.38;;
66970;SDS011;53901;51.466;-2.588;2023-05-03T02:42:43;10.45;;;2.40;;
66970;SDS011;53901;51.466;-2.588;2023-05-03T02:45:09;5.05;;;2.22;;
66970;SDS011;53901;51.466;-2.588;2023-05-03T02:47:34;6.68;;;2.50;;
66970;SDS011;53901;51.466;-2.588;2023-05-03T02:50:00;4.93;;;2.38;;
66970;SDS011;53901;51.466;-2.588;2023-05-03T02:52:25;6.88;;;2.40;;
66970;SDS011;53901;51.466;-2.588;2023-05-03T02:54:51;7.25;;;2.60;;
66970;SDS011;53901;51.466;-2.588;2023-05-03T02:57:16;5.05;;;2.30;;
66970;SDS011;53901;51.466;-2.588;2023-05-03T02:59:41;5.32;;;2.42;;
66970;SDS011;53901;51.466;-2.588;2023-05-03T03:02:07;8.15;;;2.60;;
66970;SDS011;53901;51.466;-2.588;2023-05-03T03:04:32;6.80;;;2.60;;
66970;SDS011;53901;51.466;-2.588;2023-05-03T03:06:58;5.07;;;1.95;;
66970;SDS011;53901;51.466;-2.588;2023-05-03T03:09:23;5.32;;;1.85;;
66970;SDS011;53901;51.466;-2.588;2023-05-03T03:11:51;4.18;;;2.05;;
66970;SDS011;53901;51.466;-2.588;2023-05-03T03:14:17;5.47;;;2.13;;
66970;SDS011;53901;51.466;-2.588;2023-05-03T03:16:44;6.13;;;2.28;;
66970;SDS011;53901;51.466;-2.588;2023-05-03T03:19:09;4.78;;;2.10;;
66970;SDS011;53901;51.466;-2.588;2023-05-03T03:21:35;5.43;;;1.80;;
66970;SDS011;53901;51.466;-2.588;2023-05-03T03:24:01;4.50;;;2.20;;
66970;SDS011;53901;51.466;-2.588;2023-05-03T03:26:27;3.95;;;2.40;;
66970;SDS011;53901;51.466;-2.588;2023-05-03T03:28:53;6.43;;;2.10;;
66970;SDS011;53901;51.466;-2.588;2023-05-03T03:31:18;5.22;;;2.20;;
66970;SDS011;53901;51.466;-2.588;2023-05-03T03:33:46;3.45;;;1.95;;
66970;SDS011;53901;51.466;-2.588;2023-05-03T03:36:12;3.42;;;2.03;;
66970;SDS011;53901;51.466;-2.588;2023-05-03T03:38:37;4.53;;;2.25;;
66970;SDS011;53901;51.466;-2.588;2023-05-03T03:41:04;6.50;;;2.50;;
66970;SDS011;53901;51.466;-2.588;2023-05-03T03:43:30;4.60;;;2.40;;
66970;SDS011;53901;51.466;-2.588;2023-05-03T03:45:55;9.00;;;3.03;;
66970;SDS011;53901;51.466;-2.588;2023-05-03T03:48:20;5.35;;;2.40;;
66970;SDS011;53901;51.466;-2.588;2023-05-03T03:50:46;5.00;;;2.78;;
66970;SDS011;53901;51.466;-2.588;2023-05-03T03:53:11;6.45;;;3.40;;
66970;SDS011;53901;51.466;-2.588;2023-05-03T03:55:36;5.80;;;2.85;;
66970;SDS011;53901;51.466;-2.588;2023-05-03T03:58:02;5.68;;;2.80;;
66970;SDS011;53901;51.466;-2.588;2023-05-03T04:00:28;7.47;;;2.75;;
66970;SDS011;53901;51.466;-2.588;2023-05-03T04:02:53;4.28;;;2.70;;
66970;SDS011;53901;51.466;-2.588;2023-05-03T04:05:19;8.40;;;2.90;;
66970;SDS011;53901;51.466;-2.588;2023-05-03T04:07:44;4.40;;;2.17;;
66970;SDS011;53901;51.466;-2.588;2023-05-03T04:10:09;3.40;;;2.10;;
66970;SDS011;53901;51.466;-2.588;2023-05-03T04:12:35;7.60;;;2.10;;
66970;SDS011;53901;51.466;-2.588;2023-05-03T04:15:00;4.28;;;1.90;;
66970;SDS011;53901;51.466;-2.588;2023-05-03T04:17:26;6.80;;;2.67;;
66970;SDS011;53901;51.466;-2.588;2023-05-03T04:19:53;5.05;;;2.80;;
66970;SDS011;53901;51.466;-2.588;2023-05-03T04:22:18;3.80;;;2.42;;
66970;SDS011;53901;51.466;-2.588;2023-05-03T04:24:43;3.15;;;2.13;;
66970;SDS011;53901;51.466;-2.588;2023-05-03T04:27:09;3.58;;;2.10;;
66970;SDS011;53901;51.466;-2.588;2023-05-03T04:29:35;3.75;;;1.90;;
66970;SDS011;53901;51.466;-2.588;2023-05-03T04:32:02;5.20;;;2.17;;
66970;SDS011;53901;51.466;-2.588;2023-05-03T04:34:28;5.43;;;2.00;;
66970;SDS011;53901;51.466;-2.588;2023-05-03T04:36:55;5.00;;;1.90;;
66970;SDS011;53901;51.466;-2.588;2023-05-03T04:39:20;3.75;;;1.90;;
66970;SDS011;53901;51.466;-2.588;2023-05-03T04:41:46;7.72;;;2.08;;
66970;SDS011;53901;51.466;-2.588;2023-05-03T04:44:12;4.95;;;2.22;;
66970;SDS011;53901;51.466;-2.588;2023-05-03T04:46:38;7.68;;;2.15;;
66970;SDS011;53901;51.466;-2.588;2023-05-03T04:49:04;4.45;;;2.08;;
66970;SDS011;53901;51.466;-2.588;2023-05-03T04:51:30;3.20;;;1.83;;
66970;SDS011;53901;51.466;-2.588;2023-05-03T04:53:57;3.92;;;2.20;;
66970;SDS011;53901;51.466;-2.588;2023-05-03T04:56:22;3.75;;;2.05;;
66970;SDS011;53901;51.466;-2.588;2023-05-03T04:58:51;4.95;;;1.85;;
66970;SDS011;53901;51.466;-2.588;2023-05-03T05:01:17;4.75;;;2.20;;
66970;SDS011;53901;51.466;-2.588;2023-05-03T05:03:43;2.63;;;1.58;;
66970;SDS011;53901;51.466;-2.588;2023-05-03T05:06:08;6.20;;;2.20;;
66970;SDS011;53901;51.466;-2.588;2023-05-03T05:08:36;3.45;;;1.70;;
66970;SDS011;53901;51.466;-2.588;2023-05-03T05:11:01;4.53;;;1.90;;
66970;SDS011;53901;51.466;-2.588;2023-05-03T05:13:29;9.38;;;2.00;;
66970;SDS011;53901;51.466;-2.588;2023-05-03T05:15:55;3.78;;;1.92;;
66970;SDS011;53901;51.466;-2.588;2023-05-03T05:18:20;2.67;;;1.98;;
66970;SDS011;53901;51.466;-2.588;2023-05-03T05:20:46;3.85;;;2.17;;
66970;SDS011;53901;51.466;-2.588;2023-05-03T05:23:11;3.78;;;2.00;;
66970;SDS011;53901;51.466;-2.588;2023-05-03T05:25:37;4.63;;;2.13;;
66970;SDS011;53901;51.466;-2.588;2023-05-03T05:28:02;4.40;;;1.98;;
66970;SDS011;53901;51.466;-2.588;2023-05-03T05:30:27;4.85;;;2.35;;
66970;SDS011;53901;51.466;-2.588;2023-05-03T05:32:53;4.22;;;2.20;;
66970;SDS011;53901;51.466;-2.588;2023-05-03T05:35:18;6.18;;;2.50;;
66970;SDS011;53901;51.466;-2.588;2023-05-03T05:37:44;4.28;;;2.15;;
66970;SDS011;53901;51.466;-2.588;2023-05-03T05:40:09;4.85;;;2.67;;
66970;SDS011;53901;51.466;-2.588;2023-05-03T05:42:35;6.00;;;2.47;;
66970;SDS011;53901;51.466;-2.588;2023-05-03T05:45:00;5.05;;;2.42;;
66970;SDS011;53901;51.466;-2.588;2023-05-03T05:47:26;3.83;;;2.50;;
66970;SDS011;53901;51.466;-2.588;2023-05-03T05:49:51;6.97;;;2.85;;
66970;SDS011;53901;51.466;-2.588;2023-05-03T05:52:16;4.32;;;2.42;;
66970;SDS011;53901;51.466;-2.588;2023-05-03T05:54:42;8.98;;;2.80;;
66970;SDS011;53901;51.466;-2.588;2023-05-03T05:57:07;7.85;;;2.80;;
66970;SDS011;53901;51.466;-2.588;2023-05-03T05:59:33;4.35;;;2.90;;
66970;SDS011;53901;51.466;-2.588;2023-05-03T06:01:58;11.13;;;2.90;;
66970;SDS011;53901;51.466;-2.588;2023-05-03T06:04:24;4.40;;;2.80;;
66970;SDS011;53901;51.466;-2.588;2023-05-03T06:06:50;5.78;;;3.00;;
66970;SDS011;53901;51.466;-2.588;2023-05-03T06:09:15;5.45;;;2.72;;
66970;SDS011;53901;51.466;-2.588;2023-05-03T06:11:40;5.22;;;2.85;;
66970;SDS011;53901;51.466;-2.588;2023-05-03T06:14:07;5.35;;;2.53;;
66970;SDS011;53901;51.466;-2.588;2023-05-03T06:16:34;6.07;;;2.70;;
66970;SDS011;53901;51.466;-2.588;2023-05-03T06:19:01;5.22;;;2.58;;
66970;SDS011;53901;51.466;-2.588;2023-05-03T06:21:26;6.35;;;2.90;;
66970;SDS011;53901;51.466;-2.588;2023-05-03T06:23:52;5.40;;;2.90;;
66970;SDS011;53901;51.466;-2.588;2023-05-03T06:26:17;4.82;;;2.80;;
66970;SDS011;53901;51.466;-2.588;2023-05-03T06:28:43;6.53;;;2.80;;
66970;SDS011;53901;51.466;-2.588;2023-05-03T06:31:09;8.20;;;2.60;;
66970;SDS011;53901;51.466;-2.588;2023-05-03T06:33:35;7.40;;;3.05;;
66970;SDS011;53901;51.466;-2.588;2023-05-03T06:36:00;4.05;;;2.47;;
66970;SDS011;53901;51.466;-2.588;2023-05-03T06:38:26;7.55;;;2.83;;
66970;SDS011;53901;51.466;-2.588;2023-05-03T06:40:52;4.22;;;2.30;;
66970;SDS011;53901;51.466;-2.588;2023-05-03T06:43:17;10.63;;;2.70;;
66970;SDS011;53901;51.466;-2.588;2023-05-03T06:45:44;3.92;;;2.22;;
66970;SDS011;53901;51.466;-2.588;2023-05-03T06:48:10;4.55;;;2.47;;
66970;SDS011;53901;51.466;-2.588;2023-05-03T06:50:35;4.15;;;2.55;;
66970;SDS011;53901;51.466;-2.588;2023-05-03T06:53:01;6.35;;;2.50;;
66970;SDS011;53901;51.466;-2.588;2023-05-03T06:55:26;6.28;;;2.50;;
66970;SDS011;53901;51.466;-2.588;2023-05-03T06:57:52;11.82;;;2.40;;
66970;SDS011;53901;51.466;-2.588;2023-05-03T07:00:17;5.10;;;2.95;;
66970;SDS011;53901;51.466;-2.588;2023-05-03T07:02:45;5.90;;;2.60;;
66970;SDS011;53901;51.466;-2.588;2023-05-03T07:05:10;6.53;;;2.70;;
66970;SDS011;53901;51.466;-2.588;2023-05-03T07:07:35;5.32;;;2.83;;
66970;SDS011;53901;51.466;-2.588;2023-05-03T07:10:01;4.65;;;2.33;;
66970;SDS011;53901;51.466;-2.588;2023-05-03T07:12:26;6.72;;;2.55;;
66970;SDS011;53901;51.466;-2.588;2023-05-03T07:14:53;5.75;;;3.13;;
66970;SDS011;53901;51.466;-2.588;2023-05-03T07:17:18;7.03;;;2.97;;
66970;SDS011;53901;51.466;-2.588;2023-05-03T07:19:45;10.32;;;2.55;;
66970;SDS011;53901;51.466;-2.588;2023-05-03T07:22:12;4.65;;;2.60;;
66970;SDS011;53901;51.466;-2.588;2023-05-03T07:24:38;5.20;;;2.53;;
66970;SDS011;53901;51.466;-2.588;2023-05-03T07:27:03;5.85;;;2.67;;
66970;SDS011;53901;51.466;-2.588;2023-05-03T07:29:29;7.47;;;3.03;;
66970;SDS011;53901;51.466;-2.588;2023-05-03T07:31:54;5.55;;;2.47;;
66970;SDS011;53901;51.466;-2.588;2023-05-03T07:34:20;4.85;;;2.55;;
66970;SDS011;53901;51.466;-2.588;2023-05-03T07:36:46;4.60;;;2.30;;
66970;SDS011;53901;51.466;-2.588;2023-05-03T07:39:11;5.22;;;2.45;;
66970;SDS011;53901;51.466;-2.588;2023-05-03T07:41:37;5.00;;;2.30;;
66970;SDS011;53901;51.466;-2.588;2023-05-03T07:44:02;5.07;;;1.90;;
66970;SDS011;53901;51.466;-2.588;2023-05-03T07:46:28;7.85;;;3.00;;
66970;SDS011;53901;51.466;-2.588;2023-05-03T07:48:58;2.95;;;1.90;;
66970;SDS011;53901;51.466;-2.588;2023-05-03T07:51:24;4.18;;;2.05;;
66970;SDS011;53901;51.466;-2.588;2023-05-03T07:53:50;4.13;;;2.42;;
66970;SDS011;53901;51.466;-2.588;2023-05-03T07:56:16;13.25;;;11.10;;
66970;SDS011;53901;51.466;-2.588;2023-05-03T07:58:44;3.85;;;2.03;;
66970;SDS011;53901;51.466;-2.588;2023-05-03T08:01:09;3.35;;;1.88;;
66970;SDS011;53901;51.466;-2.588;2023-05-03T08:03:34;4.47;;;2.10;;
66970;SDS011;53901;51.466;-2.588;2023-05-03T08:06:00;4.22;;;2.05;;
66970;SDS011;53901;51.466;-2.588;2023-05-03T08:08:25;4.00;;;2.03;;
66970;SDS011;53901;51.466;-2.588;2023-05-03T08:10:51;7.40;;;1.85;;
66970;SDS011;53901;51.466;-2.588;2023-05-03T08:13:17;3.58;;;1.75;;
66970;SDS011;53901;51.466;-2.588;2023-05-03T08:15:42;4.72;;;1.90;;
66970;SDS011;53901;51.466;-2.588;2023-05-03T08:18:09;4.30;;;1.90;;
66970;SDS011;53901;51.466;-2.588;2023-05-03T08:20:35;4.93;;;2.42;;
66970;SDS011;53901;51.466;-2.588;2023-05-03T08:23:01;5.50;;;1.70;;
66970;SDS011;53901;51.466;-2.588;2023-05-03T08:25:26;3.97;;;1.92;;
66970;SDS011;53901;51.466;-2.588;2023-05-03T08:27:52;3.83;;;2.08;;
66970;SDS011;53901;51.466;-2.588;2023-05-03T08:30:18;5.30;;;1.90;;
66970;SDS011;53901;51.466;-2.588;2023-05-03T08:32:45;5.28;;;1.85;;
66970;SDS011;53901;51.466;-2.588;2023-05-03T08:35:11;3.25;;;2.08;;
66970;SDS011;53901;51.466;-2.588;2023-05-03T08:37:39;3.83;;;2.13;;
66970;SDS011;53901;51.466;-2.588;2023-05-03T08:40:08;3.53;;;1.90;;
66970;SDS011;53901;51.466;-2.588;2023-05-03T08:42:43;3.95;;;2.00;;
66970;SDS011;53901;51.466;-2.588;2023-05-03T08:45:10;4.53;;;2.00;;
66970;SDS011;53901;51.466;-2.588;2023-05-03T08:47:37;6.72;;;2.17;;
66970;SDS011;53901;51.466;-2.588;2023-05-03T08:50:04;6.32;;;1.60;;
66970;SDS011;53901;51.466;-2.588;2023-05-03T08:52:30;3.63;;;1.83;;
66970;SDS011;53901;51.466;-2.588;2023-05-03T08:54:58;9.05;;;1.70;;
66970;SDS011;53901;51.466;-2.588;2023-05-03T08:57:23;3.47;;;1.70;;
66970;SDS011;53901;51.466;-2.588;2023-05-03T08:59:49;4.70;;;1.95;;
66970;SDS011;53901;51.466;-2.588;2023-05-03T09:02:17;2.92;;;1.98;;
66970;SDS011;53901;51.466;-2.588;2023-05-03T09:04:43;5.95;;;2.08;;
66970;SDS011;53901;51.466;-2.588;2023-05-03T09:07:08;2.60;;;1.70;;
66970;SDS011;53901;51.466;-2.588;2023-05-03T09:09:34;3.25;;;1.90;;
66970;SDS011;53901;51.466;-2.588;2023-05-03T09:12:00;4.13;;;1.52;;
66970;SDS011;53901;51.466;-2.588;2023-05-03T09:14:26;2.47;;;1.60;;
66970;SDS011;53901;51.466;-2.588;2023-05-03T09:16:52;6.13;;;1.60;;
66970;SDS011;53901;51.466;-2.588;2023-05-03T09:19:17;3.70;;;1.80;;
66970;SDS011;53901;51.466;-2.588;2023-05-03T09:21:44;6.28;;;1.73;;
66970;SDS011;53901;51.466;-2.588;2023-05-03T09:24:13;4.00;;;2.00;;
66970;SDS011;53901;51.466;-2.588;2023-05-03T09:26:40;4.97;;;1.70;;
66970;SDS011;53901;51.466;-2.588;2023-05-03T09:29:06;3.45;;;1.75;;
66970;SDS011;53901;51.466;-2.588;2023-05-03T09:31:32;4.13;;;1.83;;
66970;SDS011;53901;51.466;-2.588;2023-05-03T09:33:59;4.38;;;1.52;;
66970;SDS011;53901;51.466;-2.588;2023-05-03T09:36:25;3.97;;;2.00;;
66970;SDS011;53901;51.466;-2.588;2023-05-03T09:38:54;4.68;;;1.90;;
66970;SDS011;53901;51.466;-2.588;2023-05-03T09:41:29;4.68;;;1.90;;
66970;SDS011;53901;51.466;-2.588;2023-05-03T09:43:55;7.40;;;2.00;;
66970;SDS011;53901;51.466;-2.588;2023-05-03T09:46:26;4.63;;;2.10;;
66970;SDS011;53901;51.466;-2.588;2023-05-03T09:48:54;5.43;;;1.85;;
66970;SDS011;53901;51.466;-2.588;2023-05-03T09:51:21;4.85;;;1.67;;
66970;SDS011;53901;51.466;-2.588;2023-05-03T09:53:47;4.30;;;1.80;;
66970;SDS011;53901;51.466;-2.588;2023-05-03T09:56:13;5.38;;;1.70;;
66970;SDS011;53901;51.466;-2.588;2023-05-03T09:58:39;6.18;;;2.00;;
66970;SDS011;53901;51.466;-2.588;2023-05-03T10:01:04;6.00;;;1.80;;
66970;SDS011;53901;51.466;-2.588;2023-05-03T10:03:37;5.07;;;2.03;;
66970;SDS011;53901;51.466;-2.588;2023-05-03T10:09:09;2.83;;;1.77;;
66970;SDS011;53901;51.466;-2.588;2023-05-03T10:11:42;4.68;;;2.03;;
66970;SDS011;53901;51.466;-2.588;2023-05-03T10:14:12;5.00;;;1.90;;
66970;SDS011;53901;51.466;-2.588;2023-05-03T10:16:40;4.32;;;2.20;;
66970;SDS011;53901;51.466;-2.588;2023-05-03T10:19:09;5.68;;;1.80;;
66970;SDS011;53901;51.466;-2.588;2023-05-03T10:24:29;4.53;;;2.05;;
66970;SDS011;53901;51.466;-2.588;2023-05-03T10:26:55;6.20;;;1.98;;
66970;SDS011;53901;51.466;-2.588;2023-05-03T10:31:59;3.58;;;2.10;;
66970;SDS011;53901;51.466;-2.588;2023-05-03T10:34:29;4.18;;;2.05;;
66970;SDS011;53901;51.466;-2.588;2023-05-03T10:36:56;5.95;;;2.00;;
66970;SDS011;53901;51.466;-2.588;2023-05-03T10:39:25;5.85;;;2.20;;
66970;SDS011;53901;51.466;-2.588;2023-05-03T10:42:01;3.63;;;1.88;;
66970;SDS011;53901;51.466;-2.588;2023-05-03T10:44:28;3.30;;;1.80;;
66970;SDS011;53901;51.466;-2.588;2023-05-03T10:47:11;4.18;;;1.80;;
66970;SDS011;53901;51.466;-2.588;2023-05-03T10:49:44;4.15;;;2.10;;
66970;SDS011;53901;51.466;-2.588;2023-05-03T10:55:09;6.55;;;2.70;;
66970;SDS011;53901;51.466;-2.588;2023-05-03T10:57:37;8.00;;;2.50;;
66970;SDS011;53901;51.466;-2.588;2023-05-03T11:00:07;5.00;;;2.40;;
66970;SDS011;53901;51.466;-2.588;2023-05-03T11:02:38;6.38;;;2.20;;
66970;SDS011;53901;51.466;-2.588;2023-05-03T11:05:14;6.80;;;2.10;;
66970;SDS011;53901;51.466;-2.588;2023-05-03T11:07:42;8.40;;;2.53;;
66970;SDS011;53901;51.466;-2.588;2023-05-03T11:10:17;4.88;;;2.40;;
66970;SDS011;53901;51.466;-2.588;2023-05-03T11:12:43;5.40;;;1.98;;
66970;SDS011;53901;51.466;-2.588;2023-05-03T11:15:08;5.05;;;2.20;;
66970;SDS011;53901;51.466;-2.588;2023-05-03T11:17:36;3.97;;;1.90;;
66970;SDS011;53901;51.466;-2.588;2023-05-03T11:20:04;3.58;;;2.00;;
66970;SDS011;53901;51.466;-2.588;2023-05-03T11:22:32;6.93;;;2.50;;
66970;SDS011;53901;51.466;-2.588;2023-05-03T11:24:58;5.03;;;2.08;;
66970;SDS011;53901;51.466;-2.588;2023-05-03T11:27:24;7.63;;;2.33;;
66970;SDS011;53901;51.466;-2.588;2023-05-03T11:29:49;5.05;;;2.15;;
66970;SDS011;53901;51.466;-2.588;2023-05-03T11:32:15;4.25;;;2.00;;
66970;SDS011;53901;51.466;-2.588;2023-05-03T11:34:42;5.22;;;2.38;;
66970;SDS011;53901;51.466;-2.588;2023-05-03T11:37:08;5.32;;;2.00;;
66970;SDS011;53901;51.466;-2.588;2023-05-03T11:39:35;6.40;;;2.20;;
66970;SDS011;53901;51.466;-2.588;2023-05-03T11:42:01;6.82;;;2.30;;
66970;SDS011;53901;51.466;-2.588;2023-05-03T11:44:28;5.80;;;2.10;;
66970;SDS011;53901;51.466;-2.588;2023-05-03T11:46:53;5.40;;;2.20;;
66970;SDS011;53901;51.466;-2.588;2023-05-03T11:49:19;7.15;;;2.45;;
66970;SDS011;53901;51.466;-2.588;2023-05-03T11:51:45;6.05;;;2.50;;
66970;SDS011;53901;51.466;-2.588;2023-05-03T11:54:10;5.25;;;2.30;;
66970;SDS011;53901;51.466;-2.588;2023-05-03T11:56:36;4.05;;;2.40;;
66970;SDS011;53901;51.466;-2.588;2023-05-03T11:59:02;6.05;;;2.70;;
66970;SDS011;53901;51.466;-2.588;2023-05-03T12:01:28;6.35;;;2.50;;
66970;SDS011;53901;51.466;-2.588;2023-05-03T12:04:00;5.10;;;2.58;;
66970;SDS011;53901;51.466;-2.588;2023-05-03T12:06:28;7.35;;;2.58;;
66970;SDS011;53901;51.466;-2.588;2023-05-03T12:08:59;5.03;;;2.47;;
66970;SDS011;53901;51.466;-2.588;2023-05-03T12:11:25;5.57;;;2.78;;
66970;SDS011;53901;51.466;-2.588;2023-05-03T12:13:57;5.80;;;3.15;;
66970;SDS011;53901;51.466;-2.588;2023-05-03T12:16:27;7.70;;;2.85;;
66970;SDS011;53901;51.466;-2.588;2023-05-03T12:18:57;5.85;;;2.80;;
66970;SDS011;53901;51.466;-2.588;2023-05-03T12:21:41;11.02;;;3.30;;
66970;SDS011;53901;51.466;-2.588;2023-05-03T12:24:10;6.50;;;3.28;;
66970;SDS011;53901;51.466;-2.588;2023-05-03T12:26:36;5.85;;;2.97;;
66970;SDS011;53901;51.466;-2.588;2023-05-03T12:29:01;5.55;;;3.08;;
66970;SDS011;53901;51.466;-2.588;2023-05-03T12:31:27;6.47;;;3.60;;
66970;SDS011;53901;51.466;-2.588;2023-05-03T12:33:53;5.90;;;3.20;;
66970;SDS011;53901;51.466;-2.588;2023-05-03T12:36:19;7.13;;;3.47;;
66970;SDS011;53901;51.466;-2.588;2023-05-03T12:38:44;5.10;;;3.08;;
66970;SDS011;53901;51.466;-2.588;2023-05-03T12:41:10;7.00;;;3.28;;
66970;SDS011;53901;51.466;-2.588;2023-05-03T12:43:36;7.13;;;2.97;;
66970;SDS011;53901;51.466;-2.588;2023-05-03T12:46:01;6.07;;;3.65;;
66970;SDS011;53901;51.466;-2.588;2023-05-03T12:48:28;8.38;;;3.45;;
66970;SDS011;53901;51.466;-2.588;2023-05-03T12:50:54;6.10;;;2.92;;
66970;SDS011;53901;51.466;-2.588;2023-05-03T12:53:20;5.45;;;3.03;;
66970;SDS011;53901;51.466;-2.588;2023-05-03T12:55:46;6.43;;;3.33;;
66970;SDS011;53901;51.466;-2.588;2023-05-03T12:58:12;7.03;;;3.53;;
66970;SDS011;53901;51.466;-2.588;2023-05-03T13:00:37;8.60;;;3.03;;
66970;SDS011;53901;51.466;-2.588;2023-05-03T13:03:03;6.00;;;3.20;;
66970;SDS011;53901;51.466;-2.588;2023-05-03T13:05:29;7.90;;;3.38;;
66970;SDS011;53901;51.466;-2.588;2023-05-03T13:07:54;4.45;;;2.83;;
66970;SDS011;53901;51.466;-2.588;2023-05-03T13:10:21;6.43;;;3.10;;
66970;SDS011;53901;51.466;-2.588;2023-05-03T13:12:47;6.13;;;3.25;;
66970;SDS011;53901;51.466;-2.588;2023-05-03T13:15:15;6.68;;;3.15;;
66970;SDS011;53901;51.466;-2.588;2023-05-03T13:17:40;8.65;;;3.45;;
66970;SDS011;53901;51.466;-2.588;2023-05-03T13:20:06;6.13;;;2.95;;
66970;SDS011;53901;51.466;-2.588;2023-05-03T13:22:35;8.07;;;3.10;;
66970;SDS011;53901;51.466;-2.588;2023-05-03T13:25:00;6.60;;;3.15;;
66970;SDS011;53901;51.466;-2.588;2023-05-03T13:27:26;5.93;;;2.92;;
66970;SDS011;53901;51.466;-2.588;2023-05-03T13:29:52;5.35;;;2.92;;
66970;SDS011;53901;51.466;-2.588;2023-05-03T13:32:17;6.10;;;2.83;;
66970;SDS011;53901;51.466;-2.588;2023-05-03T13:34:43;8.80;;;3.03;;
66970;SDS011;53901;51.466;-2.588;2023-05-03T13:37:08;7.45;;;3.25;;
66970;SDS011;53901;51.466;-2.588;2023-05-03T13:39:35;8.07;;;2.80;;
66970;SDS011;53901;51.466;-2.588;2023-05-03T13:42:01;5.78;;;3.38;;
66970;SDS011;53901;51.466;-2.588;2023-05-03T13:44:27;5.88;;;3.17;;
66970;SDS011;53901;51.466;-2.588;2023-05-03T13:46:52;4.57;;;3.08;;
66970;SDS011;53901;51.466;-2.588;2023-05-03T13:49:19;5.15;;;2.75;;
66970;SDS011;53901;51.466;-2.588;2023-05-03T13:51:45;5.40;;;3.00;;
66970;SDS011;53901;51.466;-2.588;2023-05-03T13:54:10;7.43;;;2.60;;
66970;SDS011;53901;51.466;-2.588;2023-05-03T13:56:36;5.72;;;2.90;;
66970;SDS011;53901;51.466;-2.588;2023-05-03T13:59:01;4.90;;;2.38;;
66970;SDS011;53901;51.466;-2.588;2023-05-03T14:01:28;10.05;;;2.85;;
66970;SDS011;53901;51.466;-2.588;2023-05-03T14:03:55;7.13;;;3.08;;
66970;SDS011;53901;51.466;-2.588;2023-05-03T14:06:20;8.02;;;3.67;;
66970;SDS011;53901;51.466;-2.588;2023-05-03T14:08:47;9.05;;;5.15;;
66970;SDS011;53901;51.466;-2.588;2023-05-03T14:11:13;4.88;;;3.22;;
66970;SDS011;53901;51.466;-2.588;2023-05-03T14:13:38;5.47;;;3.30;;
66970;SDS011;53901;51.466;-2.588;2023-05-03T14:16:04;6.20;;;3.15;;
66970;SDS011;53901;51.466;-2.588;2023-05-03T14:18:30;8.73;;;3.90;;
66970;SDS011;53901;51.466;-2.588;2023-05-03T14:20:55;7.75;;;3.50;;
66970;SDS011;53901;51.466;-2.588;2023-05-03T14:23:21;4.88;;;3.25;;
66970;SDS011;53901;51.466;-2.588;2023-05-03T14:25:50;8.45;;;3.40;;
66970;SDS011;53901;51.466;-2.588;2023-05-03T14:28:16;7.63;;;3.47;;
66970;SDS011;53901;51.466;-2.588;2023-05-03T14:30:41;9.60;;;4.22;;
66970;SDS011;53901;51.466;-2.588;2023-05-03T14:33:07;7.57;;;4.15;;
66970;SDS011;53901;51.466;-2.588;2023-05-03T14:35:34;9.23;;;5.15;;
66970;SDS011;53901;51.466;-2.588;2023-05-03T14:38:00;7.75;;;3.72;;
66970;SDS011;53901;51.466;-2.588;2023-05-03T14:40:26;12.13;;;4.10;;
66970;SDS011;53901;51.466;-2.588;2023-05-03T14:42:51;7.03;;;3.75;;
66970;SDS011;53901;51.466;-2.588;2023-05-03T14:45:17;7.72;;;3.95;;